createdAt,value
2023-05-15T00:00:44.154Z,14.15
2023-05-15T00:03:18.833Z,17.23
2023-05-15T00:05:50.576Z,17.67
2023-05-15T00:08:21.876Z,16.65
2023-05-15T00:11:00.872Z,14.90
2023-05-15T00:13:46.509Z,14.65
2023-05-15T00:16:12.696Z,17.92
2023-05-15T00:18:44.113Z,13.22
2023-05-15T00:21:19.949Z,15.70
2023-05-15T00:23:52.395Z,16.40
2023-05-15T00:26:24.661Z,17.45
2023-05-15T00:28:57.152Z,15.60
2023-05-15T00:31:29.698Z,15.20
2023-05-15T00:34:01.333Z,16.05
2023-05-15T00:36:40.334Z,15.60
2023-05-15T00:39:09.808Z,17.02
2023-05-15T00:41:41.282Z,15.03
2023-05-15T00:44:13.816Z,17.35
2023-05-15T00:46:46.693Z,17.90
2023-05-15T00:49:17.803Z,23.65
2023-05-15T00:51:49.792Z,19.10
2023-05-15T00:54:20.098Z,21.50
2023-05-15T00:56:56.124Z,16.02
2023-05-15T00:59:30.679Z,16.70
2023-05-15T01:02:00.961Z,52.83
2023-05-15T01:04:31.710Z,19.45
2023-05-15T01:07:04.883Z,20.10
2023-05-15T01:09:36.074Z,13.75
2023-05-15T01:12:07.259Z,20.55
2023-05-15T01:14:37.545Z,16.20
2023-05-15T01:17:07.714Z,14.13
2023-05-15T01:19:38.197Z,21.82
2023-05-15T01:22:10.000Z,15.80
2023-05-15T01:25:00.540Z,19.52
2023-05-15T01:27:44.062Z,16.57
2023-05-15T01:30:31.502Z,19.48
2023-05-15T01:33:19.708Z,16.93
2023-05-15T01:35:51.289Z,22.80
2023-05-15T01:38:31.745Z,19.85
2023-05-15T01:41:03.846Z,18.82
2023-05-15T01:43:41.018Z,17.35
2023-05-15T01:49:02.701Z,20.52
2023-05-15T01:51:33.466Z,17.75
2023-05-15T01:54:05.402Z,16.57
2023-05-15T01:56:36.326Z,24.85
2023-05-15T01:59:07.376Z,18.62
2023-05-15T02:01:38.344Z,17.45
2023-05-15T02:04:08.940Z,14.68
2023-05-15T02:06:39.747Z,14.50
2023-05-15T02:09:10.188Z,15.68
2023-05-15T02:11:40.481Z,18.05
2023-05-15T02:14:11.472Z,17.92
2023-05-15T02:16:41.829Z,16.87
2023-05-15T02:19:12.283Z,16.57
2023-05-15T02:21:42.785Z,15.28
2023-05-15T02:24:13.605Z,20.45
2023-05-15T02:26:48.232Z,19.10
2023-05-15T02:29:19.681Z,19.17
2023-05-15T02:31:51.075Z,22.77
2023-05-15T02:34:28.402Z,18.73
2023-05-15T02:37:00.073Z,18.30
2023-05-15T02:39:31.248Z,17.65
2023-05-15T02:42:01.857Z,24.00
2023-05-15T02:44:32.991Z,20.12
2023-05-15T02:47:03.716Z,22.60
2023-05-15T02:49:34.031Z,19.90
2023-05-15T02:52:04.743Z,19.15
2023-05-15T02:54:34.988Z,15.85
2023-05-15T02:57:06.533Z,17.75
2023-05-15T02:59:37.447Z,16.77
2023-05-15T03:02:10.868Z,21.37
2023-05-15T03:04:41.719Z,16.23
2023-05-15T03:07:12.048Z,16.27
2023-05-15T03:09:43.232Z,19.50
2023-05-15T03:12:13.465Z,18.70
2023-05-15T03:14:43.719Z,17.40
2023-05-15T03:17:14.056Z,20.27
2023-05-15T03:19:44.332Z,24.10
2023-05-15T03:22:14.620Z,16.50
2023-05-15T03:24:44.811Z,21.07
2023-05-15T03:27:15.266Z,17.45
2023-05-15T03:29:46.044Z,18.12
2023-05-15T03:32:17.153Z,19.82
2023-05-15T03:34:47.760Z,17.42
2023-05-15T03:37:18.251Z,21.33
2023-05-15T03:39:48.897Z,21.07
2023-05-15T03:42:20.801Z,19.37
2023-05-15T03:44:50.990Z,15.20
2023-05-15T03:47:21.151Z,16.77
2023-05-15T03:49:51.697Z,20.40
2023-05-15T03:52:21.983Z,18.37
2023-05-15T03:54:55.199Z,24.85
2023-05-15T03:57:25.677Z,19.27
2023-05-15T03:59:55.865Z,23.80
2023-05-15T04:02:26.137Z,23.60
2023-05-15T04:04:56.543Z,20.08
2023-05-15T04:07:27.307Z,19.77
2023-05-15T04:09:57.658Z,18.15
2023-05-15T04:12:29.461Z,21.40
2023-05-15T04:15:02.364Z,20.02
2023-05-15T04:17:33.201Z,18.70
2023-05-15T04:20:03.463Z,15.83
2023-05-15T04:22:33.641Z,20.23
2023-05-15T04:25:04.341Z,14.63
2023-05-15T04:27:34.602Z,17.15
2023-05-15T04:30:05.004Z,18.17
2023-05-15T04:32:38.142Z,18.30
2023-05-15T04:35:13.214Z,18.20
2023-05-15T04:37:46.918Z,20.80
2023-05-15T04:40:19.180Z,19.73
2023-05-15T04:42:49.647Z,18.02
2023-05-15T04:45:28.579Z,16.48
2023-05-15T04:47:58.909Z,16.23
2023-05-15T04:50:29.578Z,20.65
2023-05-15T04:52:59.845Z,18.05
2023-05-15T04:55:31.153Z,21.65
2023-05-15T04:58:01.844Z,22.25
2023-05-15T05:00:32.098Z,18.10
2023-05-15T05:03:02.313Z,23.27
2023-05-15T05:05:32.578Z,21.82
2023-05-15T05:08:03.158Z,24.43
2023-05-15T05:10:33.218Z,25.08
2023-05-15T05:13:04.633Z,22.35
2023-05-15T05:15:35.332Z,19.65
2023-05-15T05:18:05.567Z,25.10
2023-05-15T05:20:35.790Z,21.23
2023-05-15T05:23:06.308Z,20.20
2023-05-15T05:25:36.898Z,16.42
2023-05-15T05:28:07.053Z,20.97
2023-05-15T05:30:37.100Z,24.05
2023-05-15T05:33:08.864Z,22.20
2023-05-15T05:35:40.198Z,22.70
2023-05-15T05:38:10.929Z,19.42
2023-05-15T05:40:42.047Z,19.95
2023-05-15T05:43:12.785Z,21.17
2023-05-15T05:45:43.547Z,18.15
2023-05-15T05:48:15.667Z,16.42
2023-05-15T05:50:48.766Z,21.25
2023-05-15T05:53:19.040Z,18.85
2023-05-15T05:55:50.160Z,23.02
2023-05-15T05:58:26.003Z,22.75
2023-05-15T06:00:54.405Z,21.87
2023-05-15T06:03:28.855Z,20.82
2023-05-15T06:06:01.273Z,23.10
2023-05-15T06:08:32.750Z,22.35
2023-05-15T06:11:04.268Z,18.00
2023-05-15T06:13:35.234Z,20.70
2023-05-15T06:16:07.584Z,20.32
2023-05-15T06:18:38.518Z,22.67
2023-05-15T06:21:09.373Z,21.27
2023-05-15T06:23:40.109Z,20.70
2023-05-15T06:26:11.054Z,22.90
2023-05-15T06:31:32.194Z,20.62
2023-05-15T06:34:03.091Z,24.20
2023-05-15T06:36:35.781Z,19.52
2023-05-15T06:39:06.759Z,19.57
2023-05-15T06:41:39.504Z,20.55
2023-05-15T06:44:10.232Z,25.88
2023-05-15T06:46:41.064Z,25.80
2023-05-15T06:49:11.867Z,17.00
2023-05-15T06:51:43.103Z,20.82
2023-05-15T06:54:14.892Z,18.15
2023-05-15T06:56:46.983Z,19.62
2023-05-15T06:59:18.221Z,23.35
2023-05-15T07:01:49.056Z,17.50
2023-05-15T07:04:20.516Z,19.50
2023-05-15T07:06:52.098Z,20.85
2023-05-15T07:09:22.825Z,25.43
2023-05-15T07:11:56.441Z,22.40
2023-05-15T07:14:28.054Z,23.65
2023-05-15T07:16:58.854Z,19.65
2023-05-15T07:19:29.894Z,23.70
2023-05-15T07:22:03.180Z,32.88
2023-05-15T07:24:34.515Z,28.32
2023-05-15T07:27:05.619Z,25.37
2023-05-15T07:29:37.647Z,26.95
2023-05-15T07:32:28.821Z,20.00
2023-05-15T07:34:59.753Z,30.37
2023-05-15T07:37:30.486Z,22.70
2023-05-15T07:40:03.112Z,21.57
2023-05-15T07:42:33.611Z,22.17
2023-05-15T07:45:07.967Z,21.50
2023-05-15T07:47:41.047Z,22.00
2023-05-15T07:50:17.200Z,29.07
2023-05-15T07:52:47.588Z,25.12
2023-05-15T07:55:18.895Z,25.50
2023-05-15T07:57:56.029Z,24.98
2023-05-15T08:00:29.998Z,25.80
2023-05-15T08:03:02.651Z,21.45
2023-05-15T08:05:36.724Z,26.10
2023-05-15T08:08:08.133Z,23.77
2023-05-15T08:10:44.380Z,19.00
2023-05-15T08:15:45.498Z,27.10
2023-05-15T08:18:16.307Z,20.75
2023-05-15T08:20:49.760Z,21.70
2023-05-15T08:23:22.405Z,26.60
2023-05-15T08:25:53.224Z,25.77
2023-05-15T08:28:25.421Z,24.50
2023-05-15T08:30:59.057Z,26.52
2023-05-15T08:33:31.236Z,19.85
2023-05-15T08:36:02.695Z,26.42
2023-05-15T08:38:34.050Z,20.95
2023-05-15T08:41:14.518Z,22.90
2023-05-15T08:43:56.036Z,20.55
2023-05-15T08:46:30.648Z,20.43
2023-05-15T08:49:03.932Z,23.38
2023-05-15T08:51:35.600Z,20.95
2023-05-15T08:54:07.182Z,24.12
2023-05-15T08:56:40.242Z,22.67
2023-05-15T08:59:11.347Z,22.35
2023-05-15T09:01:44.215Z,19.37
2023-05-15T09:04:15.433Z,18.95
2023-05-15T09:06:48.258Z,23.30
2023-05-15T09:09:20.083Z,27.60
2023-05-15T09:11:52.885Z,24.07
2023-05-15T09:14:24.129Z,22.42
2023-05-15T09:16:57.557Z,24.30
2023-05-15T09:19:29.593Z,25.77
2023-05-15T09:22:02.841Z,22.67
2023-05-15T09:24:39.882Z,20.65
2023-05-15T09:27:12.398Z,23.50
2023-05-15T09:29:43.623Z,22.15
2023-05-15T09:32:19.538Z,21.15
2023-05-15T09:34:50.494Z,25.02
2023-05-15T09:37:35.851Z,21.40
2023-05-15T09:40:18.675Z,22.95
2023-05-15T09:42:54.261Z,23.52
2023-05-15T09:45:27.163Z,23.70
2023-05-15T09:48:05.709Z,23.02
2023-05-15T09:50:42.473Z,28.65
2023-05-15T09:53:21.472Z,23.12
2023-05-15T09:55:51.612Z,21.37
2023-05-15T09:58:22.440Z,21.57
2023-05-15T10:00:54.643Z,23.25
2023-05-15T10:03:25.981Z,28.15
2023-05-15T10:06:05.150Z,20.82
2023-05-15T10:08:40.462Z,22.05
2023-05-15T10:11:11.721Z,18.82
2023-05-15T10:13:42.549Z,24.98
2023-05-15T10:16:14.764Z,20.43
2023-05-15T10:18:47.220Z,21.87
2023-05-15T10:21:19.500Z,25.72
2023-05-15T10:23:52.853Z,24.05
2023-05-15T10:26:29.200Z,21.87
2023-05-15T10:31:32.342Z,28.42
2023-05-15T10:34:03.655Z,22.42
2023-05-15T10:36:38.808Z,20.75
2023-05-15T10:39:10.979Z,25.00
2023-05-15T10:41:42.616Z,22.70
2023-05-15T10:44:13.708Z,21.17
2023-05-15T10:46:44.730Z,23.15
2023-05-15T10:49:15.469Z,26.70
2023-05-15T10:51:46.525Z,24.85
2023-05-15T10:54:17.552Z,23.18
2023-05-15T10:56:50.612Z,21.52
2023-05-15T10:59:20.963Z,25.88
2023-05-15T11:01:52.063Z,24.02
2023-05-15T11:04:26.866Z,24.72
2023-05-15T11:07:00.301Z,26.57
2023-05-15T11:09:39.264Z,21.73
2023-05-15T11:12:13.060Z,22.30
2023-05-15T11:14:46.371Z,25.80
2023-05-15T11:17:18.562Z,19.57
2023-05-15T11:19:58.988Z,26.25
2023-05-15T11:22:41.154Z,22.32
2023-05-15T11:25:13.994Z,24.72
2023-05-15T11:27:46.388Z,28.80
2023-05-15T11:30:26.198Z,22.75
2023-05-15T11:33:02.242Z,25.77
2023-05-15T11:35:44.592Z,23.35
2023-05-15T11:38:23.629Z,24.82
2023-05-15T11:40:57.501Z,24.60
2023-05-15T11:43:35.753Z,28.90
2023-05-15T11:46:09.389Z,28.75
2023-05-15T11:48:45.124Z,24.02
2023-05-15T11:51:30.576Z,25.65
2023-05-15T11:54:02.831Z,27.50
2023-05-15T11:56:33.918Z,28.77
2023-05-15T11:59:04.633Z,25.85
2023-05-15T12:01:45.180Z,26.52
2023-05-15T12:04:17.687Z,28.65
2023-05-15T12:06:50.444Z,31.45
2023-05-15T12:09:22.868Z,26.17
2023-05-15T12:11:57.773Z,33.63
2023-05-15T12:14:32.354Z,28.87
2023-05-15T12:17:07.098Z,30.48
2023-05-15T12:19:39.397Z,29.75
2023-05-15T12:22:10.885Z,36.48
2023-05-15T12:24:42.402Z,35.08
2023-05-15T12:27:14.140Z,39.38
2023-05-15T12:29:46.361Z,38.48
2023-05-15T12:32:17.501Z,36.10
2023-05-15T12:34:49.262Z,30.45
2023-05-15T12:37:24.774Z,33.40
2023-05-15T12:39:57.428Z,31.07
2023-05-15T12:42:29.006Z,31.20
2023-05-15T12:45:00.147Z,29.87
2023-05-15T12:47:31.319Z,29.27
2023-05-15T12:50:02.316Z,31.42
2023-05-15T12:52:34.339Z,29.87
2023-05-15T12:55:05.250Z,30.52
2023-05-15T12:57:37.289Z,32.65
2023-05-15T13:00:10.629Z,34.27
2023-05-15T13:02:41.641Z,32.45
2023-05-15T13:05:12.668Z,30.75
2023-05-15T13:07:46.691Z,32.48
2023-05-15T13:10:18.130Z,33.67
2023-05-15T13:12:49.254Z,30.77
2023-05-15T13:15:43.510Z,31.02
2023-05-15T13:18:17.197Z,35.83
2023-05-15T13:20:58.233Z,35.95
2023-05-15T13:23:28.237Z,32.53
2023-05-15T13:25:58.974Z,31.30
2023-05-15T13:28:29.898Z,33.60
2023-05-15T13:31:00.822Z,36.38
2023-05-15T13:33:31.848Z,29.37
2023-05-15T13:36:02.923Z,33.05
2023-05-15T13:38:33.854Z,34.40
2023-05-15T13:41:04.894Z,30.57
2023-05-15T13:43:41.724Z,34.00
2023-05-15T13:46:08.162Z,30.30
2023-05-15T13:48:39.154Z,31.80
2023-05-15T13:51:10.281Z,34.65
2023-05-15T13:53:41.670Z,35.88
2023-05-15T13:56:12.742Z,32.42
2023-05-15T13:58:43.624Z,33.85
2023-05-15T14:01:14.441Z,29.90
2023-05-15T14:03:45.338Z,28.47
2023-05-15T14:06:16.277Z,30.50
2023-05-15T14:08:47.377Z,38.73
2023-05-15T14:11:18.191Z,36.53
2023-05-15T14:13:49.271Z,34.00
2023-05-15T14:16:20.142Z,34.90
2023-05-15T14:18:51.247Z,33.15
2023-05-15T14:21:22.074Z,39.78
2023-05-15T14:23:52.842Z,39.40
2023-05-15T14:26:23.751Z,35.95
2023-05-15T14:28:54.673Z,29.98
2023-05-15T14:31:25.525Z,36.35
2023-05-15T14:33:56.776Z,28.87
2023-05-15T14:36:27.592Z,35.40
2023-05-15T14:39:00.300Z,34.38
2023-05-15T14:41:30.901Z,33.05
2023-05-15T14:44:01.863Z,33.60
2023-05-15T14:46:32.765Z,33.88
2023-05-15T14:49:03.562Z,33.50
2023-05-15T14:51:34.515Z,36.58
2023-05-15T14:54:06.517Z,30.75
2023-05-15T14:57:39.824Z,32.33
2023-05-15T14:59:09.552Z,37.33
2023-05-15T15:04:55.113Z,33.02
2023-05-15T15:07:27.272Z,32.38
2023-05-15T15:10:20.845Z,34.50
2023-05-15T15:12:40.082Z,34.18
2023-05-15T15:15:16.366Z,34.80
2023-05-15T15:17:46.572Z,31.45
2023-05-15T15:20:45.411Z,33.80
2023-05-15T15:26:22.655Z,34.40
2023-05-15T15:28:55.262Z,33.55
2023-05-15T15:31:26.279Z,32.53
2023-05-15T15:33:57.215Z,34.18
2023-05-15T15:36:28.245Z,32.67
2023-05-15T15:39:03.064Z,33.53
2023-05-15T15:44:13.455Z,36.33
2023-05-15T15:47:10.911Z,33.10
2023-05-15T15:49:51.740Z,35.70
2023-05-15T15:52:29.666Z,31.90
2023-05-15T15:55:08.138Z,35.80
2023-05-15T15:57:39.754Z,35.88
2023-05-15T16:00:12.576Z,41.40
2023-05-15T16:02:45.080Z,34.70
2023-05-15T16:05:19.059Z,37.20
2023-05-15T16:07:52.547Z,39.38
2023-05-15T16:10:23.431Z,39.10
2023-05-15T16:12:57.360Z,35.50
2023-05-15T16:15:29.577Z,38.80
2023-05-15T16:18:00.477Z,37.40
2023-05-15T16:20:34.306Z,39.88
2023-05-15T16:23:04.747Z,38.15
2023-05-15T16:25:38.036Z,38.30
2023-05-15T16:28:10.042Z,35.45
2023-05-15T16:30:48.714Z,38.00
2023-05-15T16:33:18.833Z,32.45
2023-05-15T16:36:14.809Z,31.93
2023-05-15T16:38:42.858Z,32.65
2023-05-15T16:41:19.490Z,39.53
2023-05-15T16:44:01.894Z,34.08
2023-05-15T16:46:43.287Z,39.75
2023-05-15T16:49:12.529Z,33.35
2023-05-15T16:52:01.349Z,35.48
2023-05-15T16:54:32.319Z,34.40
2023-05-15T16:57:03.052Z,39.83
2023-05-15T16:59:33.977Z,37.50
2023-05-15T17:02:32.477Z,33.00
2023-05-15T17:05:05.878Z,34.03
2023-05-15T17:07:37.181Z,35.52
2023-05-15T17:10:12.483Z,36.08
2023-05-15T17:12:43.315Z,34.63
2023-05-15T17:15:14.988Z,38.67
2023-05-15T17:17:46.035Z,36.95
2023-05-15T17:20:17.181Z,36.03
2023-05-15T17:22:48.055Z,37.17
2023-05-15T17:25:18.978Z,34.55
2023-05-15T17:27:49.700Z,35.78
2023-05-15T17:30:23.795Z,34.78
2023-05-15T17:32:54.829Z,37.10
2023-05-15T17:35:26.199Z,36.17
2023-05-15T17:37:57.262Z,41.13
2023-05-15T17:40:28.116Z,37.45
2023-05-15T17:42:58.870Z,36.63
2023-05-15T17:45:29.697Z,35.03
2023-05-15T17:48:01.845Z,36.60
2023-05-15T17:50:32.799Z,42.38
2023-05-15T17:53:03.642Z,38.05
2023-05-15T17:55:34.357Z,36.15
2023-05-15T17:58:05.083Z,42.62
2023-05-15T18:00:35.928Z,36.60
2023-05-15T18:03:06.911Z,34.20
2023-05-15T18:05:37.677Z,35.78
2023-05-15T18:08:08.415Z,33.92
2023-05-15T18:10:39.270Z,41.20
2023-05-15T18:13:10.010Z,35.25
2023-05-15T18:15:40.915Z,37.48
2023-05-15T18:18:12.139Z,37.00
2023-05-15T18:20:43.032Z,35.38
2023-05-15T18:23:15.516Z,36.13
2023-05-15T18:25:46.243Z,35.35
2023-05-15T18:28:17.417Z,33.05
2023-05-15T18:30:48.310Z,39.05
2023-05-15T18:33:19.163Z,35.25
2023-05-15T18:35:49.914Z,39.95
2023-05-15T18:38:20.867Z,39.65
2023-05-15T18:40:52.141Z,32.28
2023-05-15T18:43:22.907Z,36.95
2023-05-15T18:45:53.662Z,36.68
2023-05-15T18:48:24.396Z,36.85
2023-05-15T18:50:55.148Z,33.88
2023-05-15T18:53:26.013Z,35.85
2023-05-15T18:55:57.039Z,37.33
2023-05-15T18:58:27.773Z,34.78
2023-05-15T19:00:58.576Z,37.85
2023-05-15T19:03:29.757Z,32.40
2023-05-15T19:06:00.663Z,37.25
2023-05-15T19:08:31.426Z,37.78
2023-05-15T19:11:02.171Z,39.73
2023-05-15T19:13:34.236Z,33.98
2023-05-15T19:16:05.705Z,36.63
2023-05-15T19:18:36.645Z,39.13
2023-05-15T19:21:07.412Z,35.40
2023-05-15T19:23:38.253Z,35.68
2023-05-15T19:26:11.100Z,35.43
2023-05-15T19:28:41.946Z,31.77
2023-05-15T19:31:27.526Z,38.05
2023-05-15T19:33:44.908Z,38.28
2023-05-15T19:36:15.987Z,40.00
2023-05-15T19:38:46.792Z,37.98
2023-05-15T19:41:17.555Z,36.95
2023-05-15T19:43:49.665Z,34.03
2023-05-15T19:46:20.748Z,36.55
2023-05-15T19:48:51.763Z,33.13
2023-05-15T19:51:22.470Z,33.45
2023-05-15T19:53:53.184Z,37.33
2023-05-15T19:56:25.544Z,43.35
2023-05-15T19:58:56.380Z,33.15
2023-05-15T20:01:27.393Z,35.70
2023-05-15T20:03:58.370Z,42.35
2023-05-15T20:06:29.293Z,41.92
2023-05-15T20:09:00.055Z,38.48
2023-05-15T20:11:30.775Z,37.48
2023-05-15T20:14:01.724Z,41.08
2023-05-15T20:16:32.489Z,39.13
2023-05-15T20:19:03.271Z,38.78
2023-05-15T20:21:34.101Z,39.50
2023-05-15T20:24:04.809Z,42.25
2023-05-15T20:26:36.914Z,39.75
2023-05-15T20:29:08.138Z,43.85
2023-05-15T20:31:39.237Z,42.85
2023-05-15T20:34:10.048Z,40.17
2023-05-15T20:36:40.988Z,40.10
2023-05-15T20:39:12.512Z,40.43
2023-05-15T20:41:43.244Z,40.52
2023-05-15T20:44:13.983Z,44.75
2023-05-15T20:46:45.950Z,39.92
2023-05-15T20:49:16.874Z,44.55
2023-05-15T20:51:49.007Z,39.67
2023-05-15T20:54:19.795Z,36.40
2023-05-15T20:56:50.674Z,38.38
2023-05-15T20:59:21.613Z,40.60
2023-05-15T21:01:52.335Z,39.03
2023-05-15T21:04:23.161Z,40.40
2023-05-15T21:06:54.734Z,44.10
2023-05-15T21:09:25.443Z,36.38
2023-05-15T21:11:56.170Z,39.23
2023-05-15T21:14:26.906Z,40.95
2023-05-15T21:16:57.760Z,39.50
2023-05-15T21:19:28.687Z,41.70
2023-05-15T21:21:59.413Z,38.33
2023-05-15T21:24:30.169Z,41.55
2023-05-15T21:27:00.996Z,40.88
2023-05-15T21:29:31.808Z,39.33
2023-05-15T21:32:03.026Z,44.23
2023-05-15T21:34:33.980Z,42.60
2023-05-15T21:37:04.817Z,36.85
2023-05-15T21:39:35.578Z,42.60
2023-05-15T21:42:06.933Z,37.60
2023-05-15T21:44:37.884Z,37.75
2023-05-15T21:47:08.838Z,40.75
2023-05-15T21:49:39.592Z,37.50
2023-05-15T21:52:10.377Z,38.38
2023-05-15T21:54:41.119Z,37.65
2023-05-15T21:57:12.353Z,38.98
2023-05-15T21:59:43.181Z,43.30
2023-05-15T22:02:14.059Z,43.55
2023-05-15T22:04:44.745Z,38.67
2023-05-15T22:07:16.835Z,36.00
2023-05-15T22:09:47.584Z,41.42
2023-05-15T22:12:18.294Z,41.68
2023-05-15T22:14:58.263Z,42.45
2023-05-15T22:17:22.781Z,41.18
2023-05-15T22:19:53.583Z,38.45
2023-05-15T22:22:24.476Z,37.15
2023-05-15T22:24:55.206Z,41.20
2023-05-15T22:27:26.039Z,36.23
2023-05-15T22:29:56.924Z,38.25
2023-05-15T22:32:27.677Z,37.20
2023-05-15T22:34:59.279Z,34.18
2023-05-15T22:37:29.989Z,35.92
2023-05-15T22:40:00.895Z,35.30
2023-05-15T22:42:31.678Z,35.70
2023-05-15T22:45:02.410Z,36.85
2023-05-15T22:47:34.130Z,39.42
2023-05-15T22:50:04.861Z,37.45
2023-05-15T22:52:35.600Z,38.80
2023-05-15T22:55:06.768Z,40.10
2023-05-15T22:57:37.517Z,38.58
2023-05-15T23:00:09.231Z,35.63
2023-05-15T23:02:42.657Z,39.65
2023-05-15T23:05:13.174Z,36.25
2023-05-15T23:07:44.055Z,32.98
2023-05-15T23:10:14.882Z,36.17
2023-05-15T23:12:45.814Z,40.35
2023-05-15T23:15:17.534Z,37.85
2023-05-15T23:17:48.289Z,35.55
2023-05-15T23:20:19.328Z,36.93
2023-05-15T23:22:50.157Z,36.03
2023-05-15T23:25:21.209Z,41.50
2023-05-15T23:27:51.964Z,36.25
2023-05-15T23:30:22.965Z,36.73
2023-05-15T23:33:05.892Z,37.78
2023-05-15T23:35:36.796Z,35.33
2023-05-15T23:38:10.031Z,38.25
2023-05-15T23:40:40.766Z,34.50
2023-05-15T23:43:11.538Z,33.65
2023-05-15T23:45:42.280Z,37.40
2023-05-15T23:48:13.965Z,35.52
2023-05-15T23:50:44.890Z,35.43
2023-05-15T23:53:15.615Z,33.40
2023-05-15T23:55:46.353Z,35.63
2023-05-15T23:58:17.059Z,44.25
